sensor_id;sensor_type;location;lat;lon;timestamp;temperature;humidity
40758;DHT22;26462;47.384;19.218;2023-02-01T00:11:28;3.10;99.90
40758;DHT22;26462;47.384;19.218;2023-02-01T01:09:08;3.40;99.90
40758;DHT22;26462;47.384;19.218;2023-02-01T01:33:14;3.50;99.90
40758;DHT22;26462;47.384;19.218;2023-02-01T01:46:34;3.20;99.90
40758;DHT22;26462;47.384;19.218;2023-02-01T02:07:04;3.10;99.90
40758;DHT22;26462;47.384;19.218;2023-02-01T03:20:27;2.30;99.90
40758;DHT22;26462;47.384;19.218;2023-02-01T03:26:53;2.30;99.90
40758;DHT22;26462;47.384;19.218;2023-02-01T03:32:51;2.30;99.90
40758;DHT22;26462;47.384;19.218;2023-02-01T03:55:58;2.10;99.90
40758;DHT22;26462;47.384;19.218;2023-02-01T03:58:26;2.20;99.90
40758;DHT22;26462;47.384;19.218;2023-02-01T04:28:13;2.00;99.90
40758;DHT22;26462;47.384;19.218;2023-02-01T04:30:44;2.10;99.90
40758;DHT22;26462;47.384;19.218;2023-02-01T04:36:45;2.10;99.90
40758;DHT22;26462;47.384;19.218;2023-02-01T04:39:13;2.10;99.90
40758;DHT22;26462;47.384;19.218;2023-02-01T04:41:40;2.30;99.90
40758;DHT22;26462;47.384;19.218;2023-02-01T04:46:48;2.40;99.90
40758;DHT22;26462;47.384;19.218;2023-02-01T04:49:17;2.50;99.90
40758;DHT22;26462;47.384;19.218;2023-02-01T04:54:44;2.40;99.90
40758;DHT22;26462;47.384;19.218;2023-02-01T05:04:24;2.60;99.90
40758;DHT22;26462;47.384;19.218;2023-02-01T05:06:53;2.50;99.90
40758;DHT22;26462;47.384;19.218;2023-02-01T05:12:41;2.50;99.90
40758;DHT22;26462;47.384;19.218;2023-02-01T05:15:28;2.50;99.90
40758;DHT22;26462;47.384;19.218;2023-02-01T05:18:20;2.40;99.90
40758;DHT22;26462;47.384;19.218;2023-02-01T05:21:20;2.40;99.90
40758;DHT22;26462;47.384;19.218;2023-02-01T05:23:50;2.50;99.90
40758;DHT22;26462;47.384;19.218;2023-02-01T05:26:47;2.60;99.90
40758;DHT22;26462;47.384;19.218;2023-02-01T05:29:24;3.00;99.90
40758;DHT22;26462;47.384;19.218;2023-02-01T05:31:59;3.40;99.90
40758;DHT22;26462;47.384;19.218;2023-02-01T05:34:51;3.30;99.90
40758;DHT22;26462;47.384;19.218;2023-02-01T05:40:56;3.40;99.90
40758;DHT22;26462;47.384;19.218;2023-02-01T05:57:44;3.60;99.90
40758;DHT22;26462;47.384;19.218;2023-02-01T06:56:52;3.80;99.90
40758;DHT22;26462;47.384;19.218;2023-02-01T07:02:52;4.10;99.90
40758;DHT22;26462;47.384;19.218;2023-02-01T07:05:22;4.10;99.90
40758;DHT22;26462;47.384;19.218;2023-02-01T07:07:49;4.20;99.90
40758;DHT22;26462;47.384;19.218;2023-02-01T07:10:17;4.30;99.90
40758;DHT22;26462;47.384;19.218;2023-02-01T07:12:44;4.40;99.90
40758;DHT22;26462;47.384;19.218;2023-02-01T07:15:11;4.40;99.90
40758;DHT22;26462;47.384;19.218;2023-02-01T07:17:38;4.40;99.90
40758;DHT22;26462;47.384;19.218;2023-02-01T07:20:11;4.40;99.90
40758;DHT22;26462;47.384;19.218;2023-02-01T07:22:38;4.40;99.90
40758;DHT22;26462;47.384;19.218;2023-02-01T07:25:06;4.60;99.90
40758;DHT22;26462;47.384;19.218;2023-02-01T07:27:34;4.80;99.60
40758;DHT22;26462;47.384;19.218;2023-02-01T07:30:03;4.80;99.10
40758;DHT22;26462;47.384;19.218;2023-02-01T07:32:30;4.70;99.60
40758;DHT22;26462;47.384;19.218;2023-02-01T07:34:58;4.70;99.80
40758;DHT22;26462;47.384;19.218;2023-02-01T07:37:26;4.80;99.80
40758;DHT22;26462;47.384;19.218;2023-02-01T07:39:53;5.00;99.10
40758;DHT22;26462;47.384;19.218;2023-02-01T07:42:21;5.00;99.10
40758;DHT22;26462;47.384;19.218;2023-02-01T07:44:48;5.10;98.70
40758;DHT22;26462;47.384;19.218;2023-02-01T07:47:17;5.20;98.20
40758;DHT22;26462;47.384;19.218;2023-02-01T07:49:44;5.30;97.60
40758;DHT22;26462;47.384;19.218;2023-02-01T07:52:13;5.40;96.90
40758;DHT22;26462;47.384;19.218;2023-02-01T07:54:43;5.10;96.20
40758;DHT22;26462;47.384;19.218;2023-02-01T07:57:10;5.40;96.40
40758;DHT22;26462;47.384;19.218;2023-02-01T07:59:38;5.50;95.90
40758;DHT22;26462;47.384;19.218;2023-02-01T08:02:26;5.50;95.80
40758;DHT22;26462;47.384;19.218;2023-02-01T08:04:56;5.60;95.40
40758;DHT22;26462;47.384;19.218;2023-02-01T08:07:27;5.60;95.30
40758;DHT22;26462;47.384;19.218;2023-02-01T08:09:55;5.70;94.90
40758;DHT22;26462;47.384;19.218;2023-02-01T08:12:22;5.80;95.00
40758;DHT22;26462;47.384;19.218;2023-02-01T08:14:51;5.80;94.80
40758;DHT22;26462;47.384;19.218;2023-02-01T08:17:18;5.80;94.70
40758;DHT22;26462;47.384;19.218;2023-02-01T08:19:45;5.90;95.00
40758;DHT22;26462;47.384;19.218;2023-02-01T08:22:12;5.90;94.20
40758;DHT22;26462;47.384;19.218;2023-02-01T08:24:39;6.00;94.10
40758;DHT22;26462;47.384;19.218;2023-02-01T08:27:07;5.90;94.60
40758;DHT22;26462;47.384;19.218;2023-02-01T08:29:35;5.80;94.50
40758;DHT22;26462;47.384;19.218;2023-02-01T08:32:03;5.80;94.60
40758;DHT22;26462;47.384;19.218;2023-02-01T08:34:31;5.70;94.50
40758;DHT22;26462;47.384;19.218;2023-02-01T08:37:01;5.60;95.60
40758;DHT22;26462;47.384;19.218;2023-02-01T08:39:28;5.50;96.30
40758;DHT22;26462;47.384;19.218;2023-02-01T08:41:58;5.50;96.30
40758;DHT22;26462;47.384;19.218;2023-02-01T08:44:44;5.40;96.60
40758;DHT22;26462;47.384;19.218;2023-02-01T08:47:17;5.50;96.40
40758;DHT22;26462;47.384;19.218;2023-02-01T08:49:46;5.40;96.80
40758;DHT22;26462;47.384;19.218;2023-02-01T08:52:14;5.50;96.80
40758;DHT22;26462;47.384;19.218;2023-02-01T08:54:42;5.50;96.70
40758;DHT22;26462;47.384;19.218;2023-02-01T08:57:11;5.60;96.10
40758;DHT22;26462;47.384;19.218;2023-02-01T08:59:39;5.60;96.30
40758;DHT22;26462;47.384;19.218;2023-02-01T09:02:13;5.60;95.90
40758;DHT22;26462;47.384;19.218;2023-02-01T09:04:41;5.60;95.30
40758;DHT22;26462;47.384;19.218;2023-02-01T09:07:10;5.70;95.50
40758;DHT22;26462;47.384;19.218;2023-02-01T09:09:41;5.60;95.70
40758;DHT22;26462;47.384;19.218;2023-02-01T09:12:08;5.70;95.40
40758;DHT22;26462;47.384;19.218;2023-02-01T09:14:35;5.70;95.50
40758;DHT22;26462;47.384;19.218;2023-02-01T09:17:03;5.60;96.00
40758;DHT22;26462;47.384;19.218;2023-02-01T09:19:34;5.50;96.10
40758;DHT22;26462;47.384;19.218;2023-02-01T09:22:01;5.50;96.30
40758;DHT22;26462;47.384;19.218;2023-02-01T09:24:28;5.60;95.50
40758;DHT22;26462;47.384;19.218;2023-02-01T09:26:56;5.70;95.50
40758;DHT22;26462;47.384;19.218;2023-02-01T09:29:24;5.80;95.10
40758;DHT22;26462;47.384;19.218;2023-02-01T09:31:51;6.10;94.50
40758;DHT22;26462;47.384;19.218;2023-02-01T09:34:30;6.10;94.20
40758;DHT22;26462;47.384;19.218;2023-02-01T09:36:57;6.20;94.00
40758;DHT22;26462;47.384;19.218;2023-02-01T09:39:27;6.10;94.00
40758;DHT22;26462;47.384;19.218;2023-02-01T09:42:21;6.00;94.10
40758;DHT22;26462;47.384;19.218;2023-02-01T09:47:49;5.90;94.50
40758;DHT22;26462;47.384;19.218;2023-02-01T09:50:30;5.90;94.40
40758;DHT22;26462;47.384;19.218;2023-02-01T09:53:38;5.90;94.80
40758;DHT22;26462;47.384;19.218;2023-02-01T10:00:06;6.00;94.70
40758;DHT22;26462;47.384;19.218;2023-02-01T10:02:40;6.00;95.00
40758;DHT22;26462;47.384;19.218;2023-02-01T10:08:30;6.10;94.60
40758;DHT22;26462;47.384;19.218;2023-02-01T10:27:22;6.90;93.90
40758;DHT22;26462;47.384;19.218;2023-02-01T10:29:58;6.80;93.50
40758;DHT22;26462;47.384;19.218;2023-02-01T10:32:34;6.80;93.60
40758;DHT22;26462;47.384;19.218;2023-02-01T10:35:24;6.70;94.00
40758;DHT22;26462;47.384;19.218;2023-02-01T10:37:53;6.70;94.40
40758;DHT22;26462;47.384;19.218;2023-02-01T10:40:25;6.60;94.30
40758;DHT22;26462;47.384;19.218;2023-02-01T10:43:13;6.50;94.90
40758;DHT22;26462;47.384;19.218;2023-02-01T10:45:41;6.50;95.30
40758;DHT22;26462;47.384;19.218;2023-02-01T10:48:09;6.60;95.40
40758;DHT22;26462;47.384;19.218;2023-02-01T10:50:58;6.70;95.00
40758;DHT22;26462;47.384;19.218;2023-02-01T10:56:10;6.90;94.70
40758;DHT22;26462;47.384;19.218;2023-02-01T11:01:43;7.10;94.80
40758;DHT22;26462;47.384;19.218;2023-02-01T11:04:33;7.30;94.40
40758;DHT22;26462;47.384;19.218;2023-02-01T11:07:26;7.10;94.40
40758;DHT22;26462;47.384;19.218;2023-02-01T11:09:55;6.90;94.70
40758;DHT22;26462;47.384;19.218;2023-02-01T11:12:37;6.80;94.70
40758;DHT22;26462;47.384;19.218;2023-02-01T11:17:56;6.70;95.20
40758;DHT22;26462;47.384;19.218;2023-02-01T11:20:41;6.60;95.30
40758;DHT22;26462;47.384;19.218;2023-02-01T11:23:22;6.70;95.40
40758;DHT22;26462;47.384;19.218;2023-02-01T11:26:23;6.80;95.20
40758;DHT22;26462;47.384;19.218;2023-02-01T11:29:21;7.00;94.60
40758;DHT22;26462;47.384;19.218;2023-02-01T11:31:58;7.10;94.70
40758;DHT22;26462;47.384;19.218;2023-02-01T11:34:41;7.20;94.60
40758;DHT22;26462;47.384;19.218;2023-02-01T11:39:56;7.40;95.30
40758;DHT22;26462;47.384;19.218;2023-02-01T11:42:37;7.40;94.70
40758;DHT22;26462;47.384;19.218;2023-02-01T11:48:27;7.40;94.50
40758;DHT22;26462;47.384;19.218;2023-02-01T12:01:02;6.70;97.30
40758;DHT22;26462;47.384;19.218;2023-02-01T12:06:53;6.50;99.90
40758;DHT22;26462;47.384;19.218;2023-02-01T12:17:40;6.40;99.90
40758;DHT22;26462;47.384;19.218;2023-02-01T12:26:38;6.20;99.90
40758;DHT22;26462;47.384;19.218;2023-02-01T12:29:43;6.10;99.90
40758;DHT22;26462;47.384;19.218;2023-02-01T12:39:00;5.60;99.90
40758;DHT22;26462;47.384;19.218;2023-02-01T12:41:34;5.50;99.90
40758;DHT22;26462;47.384;19.218;2023-02-01T12:46:49;5.40;99.90
40758;DHT22;26462;47.384;19.218;2023-02-01T12:52:12;5.00;99.90
40758;DHT22;26462;47.384;19.218;2023-02-01T12:55:05;4.90;99.90
40758;DHT22;26462;47.384;19.218;2023-02-01T12:57:50;4.90;99.90
40758;DHT22;26462;47.384;19.218;2023-02-01T13:00:48;5.00;99.90
40758;DHT22;26462;47.384;19.218;2023-02-01T13:06:04;4.70;99.90
40758;DHT22;26462;47.384;19.218;2023-02-01T13:08:56;4.70;99.90
40758;DHT22;26462;47.384;19.218;2023-02-01T13:11:33;4.60;99.90
40758;DHT22;26462;47.384;19.218;2023-02-01T13:16:49;4.80;99.90
40758;DHT22;26462;47.384;19.218;2023-02-01T13:22:22;5.00;99.90
40758;DHT22;26462;47.384;19.218;2023-02-01T13:24:53;5.00;99.90
40758;DHT22;26462;47.384;19.218;2023-02-01T13:27:22;5.00;99.90
40758;DHT22;26462;47.384;19.218;2023-02-01T13:41:57;4.90;99.90
40758;DHT22;26462;47.384;19.218;2023-02-01T13:47:02;5.00;99.90
40758;DHT22;26462;47.384;19.218;2023-02-01T13:49:36;5.00;99.90
40758;DHT22;26462;47.384;19.218;2023-02-01T13:52:04;5.00;99.90
40758;DHT22;26462;47.384;19.218;2023-02-01T13:54:38;4.90;99.90
40758;DHT22;26462;47.384;19.218;2023-02-01T13:57:36;4.90;99.90
40758;DHT22;26462;47.384;19.218;2023-02-01T14:10:55;4.80;99.90
40758;DHT22;26462;47.384;19.218;2023-02-01T14:21:32;4.90;99.90
40758;DHT22;26462;47.384;19.218;2023-02-01T14:26:46;4.80;99.90
40758;DHT22;26462;47.384;19.218;2023-02-01T14:37:27;4.80;99.90
40758;DHT22;26462;47.384;19.218;2023-02-01T14:50:45;4.90;99.90
40758;DHT22;26462;47.384;19.218;2023-02-01T14:53:15;4.90;99.90
40758;DHT22;26462;47.384;19.218;2023-02-01T14:55:59;5.00;99.90
40758;DHT22;26462;47.384;19.218;2023-02-01T15:01:13;5.00;99.90
40758;DHT22;26462;47.384;19.218;2023-02-01T15:04:00;5.00;99.90
40758;DHT22;26462;47.384;19.218;2023-02-01T15:09:53;5.00;99.90
40758;DHT22;26462;47.384;19.218;2023-02-01T15:14:42;5.00;99.90
40758;DHT22;26462;47.384;19.218;2023-02-01T15:17:24;4.90;99.90
40758;DHT22;26462;47.384;19.218;2023-02-01T15:19:57;4.90;99.90
40758;DHT22;26462;47.384;19.218;2023-02-01T15:23:16;4.90;99.90
40758;DHT22;26462;47.384;19.218;2023-02-01T15:25:45;5.00;99.90
40758;DHT22;26462;47.384;19.218;2023-02-01T15:28:14;4.90;99.90
40758;DHT22;26462;47.384;19.218;2023-02-01T15:31:05;5.00;99.90
40758;DHT22;26462;47.384;19.218;2023-02-01T15:33:32;4.90;99.90
40758;DHT22;26462;47.384;19.218;2023-02-01T15:38:43;4.80;99.90
40758;DHT22;26462;47.384;19.218;2023-02-01T15:41:17;4.80;99.90
40758;DHT22;26462;47.384;19.218;2023-02-01T15:49:00;4.60;99.90
40758;DHT22;26462;47.384;19.218;2023-02-01T15:51:29;4.60;99.90
40758;DHT22;26462;47.384;19.218;2023-02-01T15:54:05;4.50;99.90
40758;DHT22;26462;47.384;19.218;2023-02-01T15:56:37;4.50;99.90
40758;DHT22;26462;47.384;19.218;2023-02-01T15:59:12;4.40;99.90
40758;DHT22;26462;47.384;19.218;2023-02-01T16:01:41;5.20;99.90
40758;DHT22;26462;47.384;19.218;2023-02-01T16:04:23;3.70;99.90
40758;DHT22;26462;47.384;19.218;2023-02-01T16:09:24;4.30;99.90
40758;DHT22;26462;47.384;19.218;2023-02-01T16:11:59;4.20;99.90
40758;DHT22;26462;47.384;19.218;2023-02-01T16:14:28;4.20;99.90
40758;DHT22;26462;47.384;19.218;2023-02-01T16:16:58;4.30;99.90
40758;DHT22;26462;47.384;19.218;2023-02-01T16:19:29;4.40;99.90
40758;DHT22;26462;47.384;19.218;2023-02-01T16:22:00;4.40;99.90
40758;DHT22;26462;47.384;19.218;2023-02-01T16:24:31;4.50;99.90
40758;DHT22;26462;47.384;19.218;2023-02-01T16:27:06;4.00;99.90
40758;DHT22;26462;47.384;19.218;2023-02-01T16:38:23;5.00;99.90
40758;DHT22;26462;47.384;19.218;2023-02-01T16:40:53;4.90;99.90
40758;DHT22;26462;47.384;19.218;2023-02-01T16:43:23;4.80;99.90
40758;DHT22;26462;47.384;19.218;2023-02-01T16:45:55;5.00;99.90
40758;DHT22;26462;47.384;19.218;2023-02-01T16:48:36;4.90;99.90
40758;DHT22;26462;47.384;19.218;2023-02-01T16:51:09;4.70;99.90
40758;DHT22;26462;47.384;19.218;2023-02-01T16:53:38;4.90;99.90
40758;DHT22;26462;47.384;19.218;2023-02-01T16:56:28;4.60;99.90
40758;DHT22;26462;47.384;19.218;2023-02-01T16:58:57;4.70;99.90
40758;DHT22;26462;47.384;19.218;2023-02-01T17:01:27;4.40;99.90
40758;DHT22;26462;47.384;19.218;2023-02-01T17:03:56;4.50;99.90
40758;DHT22;26462;47.384;19.218;2023-02-01T17:06:27;4.50;99.90
40758;DHT22;26462;47.384;19.218;2023-02-01T17:09:17;4.50;99.90
40758;DHT22;26462;47.384;19.218;2023-02-01T17:11:46;4.50;99.90
40758;DHT22;26462;47.384;19.218;2023-02-01T17:14:20;4.50;99.90
40758;DHT22;26462;47.384;19.218;2023-02-01T17:17:32;4.40;99.90
40758;DHT22;26462;47.384;19.218;2023-02-01T17:20:22;2.70;99.90
40758;DHT22;26462;47.384;19.218;2023-02-01T17:23:29;4.20;99.90
40758;DHT22;26462;47.384;19.218;2023-02-01T17:26:04;3.20;99.90
40758;DHT22;26462;47.384;19.218;2023-02-01T17:28:48;4.20;99.90
40758;DHT22;26462;47.384;19.218;2023-02-01T17:31:22;4.30;99.90
40758;DHT22;26462;47.384;19.218;2023-02-01T17:33:57;4.30;99.90
40758;DHT22;26462;47.384;19.218;2023-02-01T17:36:25;4.20;99.90
40758;DHT22;26462;47.384;19.218;2023-02-01T17:39:05;4.40;99.90
40758;DHT22;26462;47.384;19.218;2023-02-01T17:41:42;3.80;99.90
40758;DHT22;26462;47.384;19.218;2023-02-01T17:44:14;4.10;99.90
40758;DHT22;26462;47.384;19.218;2023-02-01T17:46:43;3.90;99.90
40758;DHT22;26462;47.384;19.218;2023-02-01T17:49:16;3.90;99.90
40758;DHT22;26462;47.384;19.218;2023-02-01T17:51:50;3.90;99.90
40758;DHT22;26462;47.384;19.218;2023-02-01T17:54:19;4.00;99.90
40758;DHT22;26462;47.384;19.218;2023-02-01T17:56:48;3.80;99.90
40758;DHT22;26462;47.384;19.218;2023-02-01T17:59:16;3.70;99.90
40758;DHT22;26462;47.384;19.218;2023-02-01T18:02:22;3.20;99.90
40758;DHT22;26462;47.384;19.218;2023-02-01T18:04:56;3.70;99.90
40758;DHT22;26462;47.384;19.218;2023-02-01T18:07:30;3.80;99.90
40758;DHT22;26462;47.384;19.218;2023-02-01T18:13:41;3.80;99.90
40758;DHT22;26462;47.384;19.218;2023-02-01T18:16:53;3.70;99.90
40758;DHT22;26462;47.384;19.218;2023-02-01T18:22:59;3.80;99.90
40758;DHT22;26462;47.384;19.218;2023-02-01T18:26:10;4.20;99.90
40758;DHT22;26462;47.384;19.218;2023-02-01T18:29:11;4.10;99.90
40758;DHT22;26462;47.384;19.218;2023-02-01T18:35:26;4.10;99.90
40758;DHT22;26462;47.384;19.218;2023-02-01T18:38:13;4.10;99.90
40758;DHT22;26462;47.384;19.218;2023-02-01T18:41:16;4.10;99.90
40758;DHT22;26462;47.384;19.218;2023-02-01T18:44:01;4.20;99.90
40758;DHT22;26462;47.384;19.218;2023-02-01T18:46:44;3.80;99.90
40758;DHT22;26462;47.384;19.218;2023-02-01T18:49:24;4.50;99.90
40758;DHT22;26462;47.384;19.218;2023-02-01T18:52:12;4.40;99.90
40758;DHT22;26462;47.384;19.218;2023-02-01T18:58:45;4.20;99.90
40758;DHT22;26462;47.384;19.218;2023-02-01T20:03:42;3.60;99.90
40758;DHT22;26462;47.384;19.218;2023-02-01T20:16:56;3.30;99.90
40758;DHT22;26462;47.384;19.218;2023-02-01T20:23:26;3.30;99.90
40758;DHT22;26462;47.384;19.218;2023-02-01T20:26:26;3.50;99.90
40758;DHT22;26462;47.384;19.218;2023-02-01T20:28:54;3.60;99.90
40758;DHT22;26462;47.384;19.218;2023-02-01T20:31:25;3.80;99.90
40758;DHT22;26462;47.384;19.218;2023-02-01T20:33:57;3.80;99.90
40758;DHT22;26462;47.384;19.218;2023-02-01T20:36:27;4.00;99.90
40758;DHT22;26462;47.384;19.218;2023-02-01T20:38:56;4.00;99.90
40758;DHT22;26462;47.384;19.218;2023-02-01T20:41:25;4.00;99.90
40758;DHT22;26462;47.384;19.218;2023-02-01T20:43:54;4.00;99.90
40758;DHT22;26462;47.384;19.218;2023-02-01T20:46:24;4.10;99.90
40758;DHT22;26462;47.384;19.218;2023-02-01T20:48:55;4.20;99.90
40758;DHT22;26462;47.384;19.218;2023-02-01T20:51:23;4.30;99.90
40758;DHT22;26462;47.384;19.218;2023-02-01T20:53:53;4.20;99.90
40758;DHT22;26462;47.384;19.218;2023-02-01T20:56:21;4.30;99.90
40758;DHT22;26462;47.384;19.218;2023-02-01T20:58:51;4.50;99.90
40758;DHT22;26462;47.384;19.218;2023-02-01T21:01:33;4.40;99.90
40758;DHT22;26462;47.384;19.218;2023-02-01T21:04:03;4.50;99.90
40758;DHT22;26462;47.384;19.218;2023-02-01T21:06:31;4.50;99.90
40758;DHT22;26462;47.384;19.218;2023-02-01T21:09:03;4.50;99.90
40758;DHT22;26462;47.384;19.218;2023-02-01T21:11:32;4.50;99.90
40758;DHT22;26462;47.384;19.218;2023-02-01T21:14:01;4.60;99.90
40758;DHT22;26462;47.384;19.218;2023-02-01T21:16:35;4.70;99.90
40758;DHT22;26462;47.384;19.218;2023-02-01T21:19:11;4.50;99.90
40758;DHT22;26462;47.384;19.218;2023-02-01T21:21:39;4.40;99.90
40758;DHT22;26462;47.384;19.218;2023-02-01T21:24:08;4.40;99.90
40758;DHT22;26462;47.384;19.218;2023-02-01T21:26:47;4.30;99.90
40758;DHT22;26462;47.384;19.218;2023-02-01T21:29:18;4.20;99.90
40758;DHT22;26462;47.384;19.218;2023-02-01T21:31:46;4.20;99.90
40758;DHT22;26462;47.384;19.218;2023-02-01T21:34:18;4.20;99.90
40758;DHT22;26462;47.384;19.218;2023-02-01T21:36:48;4.20;99.90
40758;DHT22;26462;47.384;19.218;2023-02-01T21:39:15;4.00;99.90
40758;DHT22;26462;47.384;19.218;2023-02-01T21:41:47;4.00;99.90
40758;DHT22;26462;47.384;19.218;2023-02-01T21:44:33;4.00;99.90
40758;DHT22;26462;47.384;19.218;2023-02-01T21:47:04;3.90;99.90
40758;DHT22;26462;47.384;19.218;2023-02-01T21:49:37;3.40;99.90
40758;DHT22;26462;47.384;19.218;2023-02-01T21:52:04;3.90;99.90
40758;DHT22;26462;47.384;19.218;2023-02-01T21:54:32;3.90;99.90
40758;DHT22;26462;47.384;19.218;2023-02-01T21:57:00;3.90;99.90
40758;DHT22;26462;47.384;19.218;2023-02-01T21:59:27;3.90;99.90
40758;DHT22;26462;47.384;19.218;2023-02-01T22:02:10;4.40;99.90
40758;DHT22;26462;47.384;19.218;2023-02-01T22:04:37;3.90;99.90
40758;DHT22;26462;47.384;19.218;2023-02-01T22:07:18;4.00;99.90
40758;DHT22;26462;47.384;19.218;2023-02-01T23:48:27;3.70;99.90
